Latest Weather Observations for Delamere

IDD60801

Issued at 12:01 pm CST Monday 30 March 2015 (issued every 30 minutes, with the page automatically refreshed every 10 minutes)

About weather observations | Map of weather stations | Latest weather observations for NT | Other Formats
Station Details ID: 014949 Name: DELAMERE WEAPONS RANGE Lat: -15.74 Lon: 131.92 Height: 221.0 m
Data from the previous 72 hours. | See also: Recent months at Delamere
Date/Time
CST
Temp
°C
App
Temp
°C
Dew
Point
Rel
Hum
%
Delta-T
°C
Wind Press
QNH
hPa
Press
MSL
hPa
Rain
since 9 am
mm
Dir
 
Spd
km/h
Gust
km/h
Spd
kts
Gust
kts
30/12:00pm 32.8 33.6 21.3 50 7.8 ENE 19 33 10 18 1014.1 1012.6 0.0
30/11:30am 31.6 31.5 19.6 49 7.9 ENE 19 26 10 14 1014.8 - 0.0
30/11:00am 31.3 31.3 19.0 48 8.1 E 17 28 9 15 1015.2 - 0.0
30/10:30am 30.8 29.8 18.8 48 7.8 ENE 22 30 12 16 1015.4 - 0.0
30/10:00am 30.3 30.8 19.3 51 7.2 E 15 24 8 13 1015.4 - 0.0
30/09:30am 29.2 31.3 20.9 61 5.6 ENE 11 19 6 10 1015.5 - 0.0
30/09:00am 27.7 29.0 21.7 70 4.0 ENE 17 20 9 11 1015.0 1013.4 0.0
30/08:30am 26.6 28.9 22.0 76 3.1 ENE 13 19 7 10 1014.9 - 0.0
30/08:00am 25.6 28.3 21.3 77 2.9 ENE 9 15 5 8 1014.4 - 0.0
30/07:30am 24.9 27.9 21.2 80 2.5 E 7 13 4 7 1014.0 - 0.0
30/07:00am 24.0 26.4 20.9 83 2.0 ENE 9 13 5 7 1013.6 - 0.0
30/06:30am 24.0 26.8 21.5 86 1.7 NE 9 13 5 7 1013.2 - 0.0
30/06:00am 24.0 27.0 21.9 88 1.4 NE 9 9 5 5 1012.9 1011.4 0.0
30/05:30am 24.2 27.3 22.1 88 1.4 ENE 9 11 5 6 1012.6 - 0.0
30/05:00am 24.3 28.0 22.6 90 1.2 ENE 7 9 4 5 1012.3 - 0.0
30/04:30am 24.6 28.5 22.5 88 1.4 ENE 6 7 3 4 1012.0 - 0.0
30/04:00am 24.7 28.2 22.9 90 1.2 NE 9 11 5 6 1011.9 - 0.0
30/03:30am 24.8 30.1 23.0 90 1.2 CALM 0 0 0 0 1012.0 - 0.0
30/03:00am 25.0 30.2 22.9 88 1.4 CALM 0 0 0 0 1012.2 1010.6 0.0
30/02:30am 25.2 30.7 23.4 90 1.2 CALM 0 0 0 0 1012.2 - 0.0
30/02:00am 25.5 31.2 23.7 90 1.2 CALM 0 0 0 0 1012.6 - 0.0
30/01:30am 25.4 31.0 23.5 89 1.3 CALM 0 0 0 0 1012.8 - 0.0
30/01:00am 25.5 30.8 23.0 86 1.7 CALM 0 0 0 0 1013.2 - 0.0
30/12:30am 26.2 31.9 23.7 86 1.7 CALM 0 0 0 0 1013.7 - 0.0
30/12:00am 26.5 32.1 23.6 84 2.0 CALM 0 0 0 0 1013.9 1012.4 0.0
 
Date/Time
CST
Temp
°C
App
Temp
°C
Dew
Point
Rel
Hum
%
Delta-T
°C
Wind Press
QNH
hPa
Press
MSL
hPa
Rain
since 9 am
mm
Dir
 
Spd
km/h
Gust
km/h
Spd
kts
Gust
kts
29/11:30pm 26.8 32.0 22.8 79 2.7 CALM 0 0 0 0 1014.2 - 0.0
29/11:00pm 27.4 30.7 21.9 72 3.7 NNE 7 9 4 5 1014.2 - 0.0
29/10:30pm 27.9 31.0 22.1 70 3.9 NNE 9 11 5 6 1014.4 - 0.0
29/10:00pm 28.3 32.4 22.3 70 4.1 NE 4 9 2 5 1014.1 - 0.0
29/09:30pm 28.7 33.5 22.2 68 4.4 CALM 0 0 0 0 1014.1 - 0.0
29/09:00pm 28.6 33.8 22.8 71 4.0 CALM 0 0 0 0 1013.9 1012.4 0.0
29/08:30pm 28.8 34.1 23.0 71 4.0 CALM 0 0 0 0 1013.7 - 0.0
29/08:00pm 29.2 34.4 22.9 69 4.3 CALM 0 0 0 0 1013.4 - 0.0
29/07:30pm 29.8 35.4 23.5 69 4.4 CALM 0 0 0 0 1013.1 - 0.0
29/07:00pm 30.8 34.6 21.0 56 6.6 ENE 2 6 1 3 1012.8 - 0.0
29/06:30pm 32.0 34.2 19.6 47 8.2 ENE 7 11 4 6 1012.5 - 0.0
29/06:00pm 32.9 34.2 19.4 45 9.0 ENE 11 15 6 8 1012.1 1010.5 0.0
29/05:30pm 33.5 33.6 18.4 40 9.9 ESE 15 20 8 11 1011.9 - 0.0
29/05:00pm 33.8 34.1 17.9 38 10.4 E 13 20 7 11 1011.7 - 0.0
29/04:30pm 33.9 34.1 17.6 38 10.6 E 13 20 7 11 1011.6 - 0.0
29/04:00pm 33.6 33.8 18.5 40 9.9 E 15 24 8 13 1011.5 - 0.0
29/03:30pm 33.8 33.6 17.5 38 10.6 E 15 24 8 13 1011.6 - 0.0
29/03:00pm 34.1 34.4 17.8 38 10.6 E 13 26 7 14 1011.7 1010.1 0.0
29/02:30pm 33.9 34.2 18.8 41 10.0 E 15 28 8 15 1011.9 - 0.0
29/02:00pm 33.7 33.6 17.8 38 10.3 ENE 15 22 8 12 1012.1 - 0.0
29/01:30pm 34.1 35.1 19.4 42 9.8 E 13 20 7 11 1012.5 - 0.0
29/01:00pm 33.0 34.6 19.1 43 9.2 E 9 20 5 11 1012.9 - 0.0
29/12:30pm 32.2 34.4 19.5 47 8.4 ESE 7 13 4 7 1013.4 - 0.0
29/12:00pm 32.0 33.1 18.9 45 8.6 ESE 11 20 6 11 1014.0 1012.5 0.0
29/11:30am 32.2 35.0 20.8 51 7.7 ENE 7 17 4 9 1014.4 - 0.0
29/11:00am 31.3 32.7 19.6 49 7.7 NE 11 17 6 9 1014.7 - 0.0
29/10:30am 30.7 32.8 20.9 56 6.6 NE 11 15 6 8 1015.0 - 0.0
29/10:00am 30.1 31.9 20.4 56 6.5 NE 11 17 6 9 1015.0 - 0.0
29/09:30am 28.6 30.3 20.1 60 5.6 ENE 11 17 6 9 1015.1 - 0.0
29/09:00am 28.3 30.4 20.1 61 5.4 E 9 13 5 7 1015.1 1013.5 0.0
29/08:30am 27.1 29.4 19.9 64 4.7 ESE 7 11 4 6 1014.9 - 0.0
29/08:00am 25.7 27.4 19.3 67 4.1 ESE 9 11 5 6 1014.5 - 0.0
29/07:30am 24.3 26.2 19.8 76 2.9 ESE 9 13 5 7 1014.0 - 0.0
29/07:00am 23.2 25.9 20.3 84 1.9 E 6 7 3 4 1013.8 - 0.0
29/06:30am 23.0 25.4 20.1 84 1.9 ENE 7 9 4 5 1013.4 - 0.0
29/06:00am 23.2 25.8 20.5 85 1.8 E 7 11 4 6 1012.9 1011.4 0.0
29/05:30am 23.4 26.6 21.3 88 1.4 S 6 7 3 4 1012.5 - 0.0
29/05:00am 23.3 27.9 21.7 91 1.1 CALM 0 0 0 0 1012.1 - 0.0
29/04:30am 23.5 28.2 21.9 91 1.1 CALM 0 0 0 0 1011.8 - 0.0
29/04:00am 24.1 29.0 22.4 90 1.1 CALM 0 0 0 0 1011.8 - 0.0
29/03:30am 24.3 29.2 22.4 89 1.3 CALM 0 0 0 0 1011.9 - 0.0
29/03:00am 24.5 29.4 22.4 88 1.4 CALM 0 0 0 0 1012.0 1010.4 0.0
29/02:30am 24.1 29.1 22.5 91 1.1 CALM 0 0 0 0 1012.2 - 0.0
29/02:00am 24.3 28.9 21.8 86 1.7 CALM 0 0 0 0 1012.6 - 0.0
29/01:30am 24.3 29.0 22.0 87 1.5 CALM 0 0 0 0 1013.1 - 0.0
29/01:00am 24.5 29.2 22.0 86 1.7 CALM 0 0 0 0 1013.5 - 0.0
29/12:30am 24.7 29.8 22.6 88 1.4 CALM 0 0 0 0 1013.7 - 0.0
29/12:00am 24.7 29.5 22.2 86 1.7 CALM 0 0 0 0 1014.0 1012.5 0.0
 
Date/Time
CST
Temp
°C
App
Temp
°C
Dew
Point
Rel
Hum
%
Delta-T
°C
Wind Press
QNH
hPa
Press
MSL
hPa
Rain
since 9 am
mm
Dir
 
Spd
km/h
Gust
km/h
Spd
kts
Gust
kts
28/11:30pm 24.7 29.5 22.2 86 1.7 CALM 0 0 0 0 1014.2 - 0.0
28/11:00pm 25.1 28.9 20.1 74 3.3 CALM 0 0 0 0 1014.2 - 0.0
28/10:30pm 26.0 30.1 20.8 73 3.4 CALM 0 4 0 2 1014.2 - 0.0
28/10:00pm 27.0 28.8 18.3 59 5.6 SSE 6 7 3 4 1014.2 - 0.0
28/09:30pm 27.2 29.0 18.8 60 5.4 SE 7 7 4 4 1014.2 - 0.0
28/09:00pm 27.8 29.4 18.2 56 6.2 SE 7 9 4 5 1013.9 1012.4 0.0
28/08:30pm 27.6 29.2 18.3 57 6.0 SE 7 9 4 5 1013.6 - 0.0
28/08:00pm 27.4 29.8 20.0 64 4.9 SE 7 9 4 5 1013.2 - 0.0
28/07:30pm 28.1 30.7 19.3 58 5.7 ESE 4 6 2 3 1012.9 - 0.0
28/07:00pm 29.1 30.9 18.8 53 6.7 E 7 7 4 4 1012.4 - 0.0
28/06:30pm 30.2 31.4 17.3 46 8.2 ENE 7 9 4 5 1012.0 - 0.0
28/06:00pm 31.2 31.0 15.6 39 9.8 ENE 11 15 6 8 1011.6 1010.0 0.0
28/05:30pm 32.3 30.9 14.4 33 11.0 E 15 22 8 12 1011.5 - 0.0
28/05:00pm 32.9 31.7 14.0 32 11.6 E 13 20 7 11 1011.3 - 0.0
28/04:30pm 33.3 32.2 15.3 34 11.3 ENE 15 20 8 11 1011.2 - 0.0
28/04:00pm 33.4 32.1 14.9 32 11.5 E 15 24 8 13 1011.3 - 0.0
28/03:30pm 33.4 32.1 14.9 32 11.5 ENE 15 24 8 13 1011.4 - 0.0
28/03:00pm 33.6 31.7 14.1 30 12.0 NE 17 22 9 12 1011.6 1010.0 0.0
28/02:30pm 32.7 31.2 14.3 32 11.3 E 15 22 8 12 1011.9 - 0.0
28/02:00pm 32.2 30.4 13.4 32 11.4 E 15 26 8 14 1012.3 - 0.0
28/01:30pm 32.4 30.1 13.1 31 11.7 ENE 17 26 9 14 1012.6 - 0.0
28/01:00pm 32.1 29.2 12.8 30 11.6 ENE 20 28 11 15 1013.1 - 0.0
28/12:30pm 31.6 27.9 11.4 29 11.9 E 22 30 12 16 1013.7 - 0.0
28/12:00pm 31.4 28.9 12.2 30 11.4 E 17 28 9 15 1014.0 1012.5 0.0
28/11:30am 30.4 26.2 9.8 28 11.7 E 22 32 12 17 1014.5 - 0.0
28/11:00am 30.5 26.7 9.9 28 11.8 E 20 30 11 16 1014.8 - 0.0
28/10:30am 30.0 26.4 10.5 30 11.2 E 20 32 11 17 1015.1 - 0.0
28/10:00am 28.9 24.2 9.1 29 11.1 E 24 35 13 19 1014.8 - 0.0
28/09:30am 27.7 23.8 9.5 32 10.2 ESE 20 30 11 16 1014.8 - 0.0
28/09:00am 26.3 22.6 10.0 36 9.1 ESE 20 28 11 15 1014.9 1013.3 0.0
28/08:30am 25.0 23.3 13.5 48 6.8 ESE 15 20 8 11 1014.8 - 0.0
28/08:00am 23.7 22.8 13.6 53 5.9 ESE 11 17 6 9 1014.4 - 0.0
28/07:30am 22.5 22.4 13.8 58 5.1 ESE 7 11 4 6 1014.1 - 0.0
28/07:00am 21.7 21.7 14.1 62 4.5 E 7 9 4 5 1013.8 - 0.0
28/06:30am 21.6 22.0 15.4 68 3.7 ESE 7 9 4 5 1013.4 - 0.0
28/06:00am 22.1 22.5 15.2 65 4.1 ESE 7 9 4 5 1013.2 1011.7 0.0
28/05:30am 22.3 23.1 15.9 67 3.9 ESE 6 7 3 4 1012.9 - 0.0
28/05:00am 22.5 23.1 15.8 66 4.1 ESE 7 9 4 5 1012.8 - 0.0
28/04:30am 23.0 23.6 15.8 64 4.4 SE 7 11 4 6 1012.6 - 0.0
28/04:00am 21.8 25.1 19.2 85 1.7 CALM 0 0 0 0 1012.5 - 0.0
28/03:30am 22.5 25.5 18.5 78 2.5 CALM 0 0 0 0 1012.5 - 0.0
28/03:00am 23.0 24.6 17.9 73 3.2 SE 6 9 3 5 1012.7 1011.2 0.0
28/02:30am 22.4 26.3 20.3 88 1.4 CALM 0 0 0 0 1012.9 - 0.0
28/02:00am 22.7 26.5 20.2 86 1.6 CALM 0 0 0 0 1013.0 - 0.0
28/01:30am 23.0 27.4 21.3 90 1.1 CALM 0 0 0 0 1013.3 - 0.0
28/01:00am 23.3 26.4 19.5 79 2.5 SE 2 6 1 3 1013.7 - 0.0
28/12:30am 23.8 27.8 20.5 82 2.2 CALM 0 0 0 0 1014.1 - 0.0
28/12:00am 25.1 26.7 17.8 64 4.6 SSE 6 9 3 5 1014.6 1013.0 0.0
 
Date/Time
CST
Temp
°C
App
Temp
°C
Dew
Point
Rel
Hum
%
Delta-T
°C
Wind Press
QNH
hPa
Press
MSL
hPa
Rain
since 9 am
mm
Dir
 
Spd
km/h
Gust
km/h
Spd
kts
Gust
kts
27/11:30pm 25.5 27.2 18.4 65 4.5 SSE 7 9 4 5 1014.8 - 0.0
27/11:00pm 25.8 27.6 18.7 65 4.6 SE 7 9 4 5 1014.8 - 0.0
27/10:30pm 26.3 27.6 18.4 61 5.1 SE 9 11 5 6 1014.8 - 0.0
27/10:00pm 26.2 28.7 20.3 70 3.9 ESE 7 9 4 5 1015.1 - 0.0
27/09:30pm 26.8 29.3 20.2 67 4.3 SE 7 9 4 5 1015.0 - 0.0
27/09:00pm 27.3 30.1 20.4 66 4.6 SE 6 7 3 4 1014.9 1013.3 0.0
27/08:30pm 27.3 31.7 21.3 69 4.0 CALM 0 0 0 0 1014.6 - 0.0
27/08:00pm 27.7 32.9 22.9 75 3.3 CALM 0 0 0 0 1014.2 - 0.0
27/07:30pm 27.5 32.6 22.7 75 3.3 CALM 0 0 0 0 1013.8 - 0.0
27/07:00pm 28.2 32.2 20.5 63 5.1 CALM 0 0 0 0 1013.6 - 0.0
27/06:30pm 29.3 31.4 19.0 53 6.7 ESE 6 7 3 4 1013.3 - 0.0
27/06:00pm 30.3 31.8 18.1 48 7.9 E 7 11 4 6 1013.2 1011.7 0.0
27/05:30pm 30.9 31.5 16.9 43 8.9 E 9 13 5 7 1013.0 - 0.0
27/05:00pm 31.2 30.3 16.8 42 9.2 E 17 24 9 13 1012.8 - 0.0
27/04:30pm 31.6 30.6 16.7 40 9.5 ESE 17 22 9 12 1012.4 - 0.0
27/04:00pm 32.0 31.4 16.7 40 9.7 E 15 22 8 12 1012.2 - 0.0
27/03:30pm 32.2 32.3 18.4 44 9.0 ENE 15 20 8 11 1012.7 - 0.0
27/03:00pm 32.2 32.7 18.4 44 9.0 E 13 19 7 10 1013.1 1011.6 0.0
27/02:30pm 31.8 31.1 17.3 42 9.3 E 17 24 9 13 1013.8 - 0.0
27/02:00pm 31.9 31.6 17.4 42 9.3 ESE 15 28 8 15 1014.0 - 0.0
27/01:30pm 30.9 30.5 17.2 43 8.8 ESE 15 24 8 13 1014.5 - 0.0
27/01:00pm 30.7 29.6 16.3 42 9.1 E 17 24 9 13 1014.9 - 0.0
27/12:30pm 30.4 29.5 16.8 44 8.6 E 17 26 9 14 1015.3 - 0.0

Other Formats:

Comma delimited format used in spreadsheet applications
http://www.bom.gov.au/fwo/IDD60801/IDD60801.94225.axf

JavaScript Object Notation format (JSON) in row-major order
http://www.bom.gov.au/fwo/IDD60801/IDD60801.94225.json